Flight Track Log - Related Links

Times and Time Zones

All times are in EDT time to prevent confusion due to time zone crossing. See the SKW6335 flight status page for this flight to view local times or setup timezone preferences in your user account.


Time Position Orientation Groundspeed Altitude Reporting Facility
EDT Latitude Longitude Course Direction KTS MPH feet Rate Location/Type
Thu 06:11:38 PM 33.9000 -118.4500 140° Southeast 178 205 3,000  Level Southern California TRACON
Thu 06:12:38 PM 33.8500 -118.4667 195° South 201 231 4,300 1,152 Climbing Southern California TRACON
Thu 06:13:17 PM 33.8125 -118.4681 182° South 206 237 4,900 1,129 Climbing Los Angeles Center
Thu 06:14:00 PM 33.6897 -118.1495 139° Southeast  Level Estimated
Thu 06:14:19 PM 33.7561 -118.4514 166° South 226 260 6,200  Level Los Angeles Center
Thu 06:15:00 PM 33.6266 -118.0847 139° Southeast  Level FlightAware Approximate
Thu 06:15:21 PM 33.7147 -118.3792 125° Southeast 224 258 7,100  Level Los Angeles Center
Thu 06:16:00 PM 33.5635 -118.0201 140° Southeast  Level FlightAware Approximate
Thu 06:16:23 PM 33.6814 -118.3167 123° Southeast 229 264 8,400  Level Los Angeles Center
Thu 06:17:00 PM 33.5004 -117.9556 140° Southeast  Level FlightAware Approximate
Thu 06:17:25 PM 33.6414 -118.2636 132° Southeast 216 249 9,100  Level Los Angeles Center
Thu 06:18:27 PM 33.5969 -118.2058 133° Southeast 228 262 9,000  Descending Los Angeles Center
Thu 06:19:30 PM 33.5392 -118.1331 134° Southeast 245 282 9,100 48 Climbing Los Angeles Center
Thu 06:20:32 PM 33.4922 -118.0692 131° Southeast 252 290 9,100  Level Los Angeles Center
Thu 06:21:34 PM 33.4553 -117.9975 122° Southeast 253 291 9,100  Level Los Angeles Center
Thu 06:22:36 PM 33.4194 -117.9272 121° Southeast 250 288 9,100  Level Los Angeles Center
Thu 06:23:33 PM 33.3833 -117.8500 119° Southeast 252 290 9,100  Level Southern California TRACON
Thu 06:24:40 PM 33.3417 -117.7886 129° Southeast 251 289 9,100  Level Los Angeles Center
Thu 06:25:42 PM 33.2947 -117.7053 124° Southeast 252 290 9,100  Level Los Angeles Center
Thu 06:26:44 PM 33.2561 -117.6353 123° Southeast 252 290 9,100  Level Los Angeles Center
Thu 06:27:34 PM 33.2167 -117.5667 124° Southeast 253 291 9,100  Level Southern California TRACON
Thu 06:28:34 PM 33.1833 -117.5000 121° Southeast 252 290 9,100 -144 Level Southern California TRACON
Thu 06:29:39 PM 33.1333 -117.4333 132° Southeast 257 296 8,800 -600 Descending Southern California TRACON
Thu 06:30:34 PM 33.0667 -117.4000 157° South 266 306 7,900 -973 Descending Southern California TRACON
Thu 06:30:53 PM 33.0514 -117.3889 149° Southeast 266 306 7,600 -800 Descending Los Angeles Center
Thu 06:31:34 PM 33.0000 -117.3667 160° South 264 304 7,100 -280 Descending Southern California TRACON
Thu 06:32:40 PM 32.9333 -117.3167 148° Southeast 249 287 7,100  Level Southern California TRACON
Thu 06:33:34 PM 32.9000 -117.2667 128° Southeast 233 268 7,100  Level Southern California TRACON
Thu 06:34:34 PM 32.8500 -117.2167 140° Southeast 236 272 7,100  Level Southern California TRACON
Thu 06:35:01 PM 32.8372 -117.1978 129° Southeast 232 267 7,100 -67 Level Los Angeles Center
Thu 06:36:03 PM 32.7989 -117.1283 123° Southeast 224 258 7,000 -65 Descending Los Angeles Center
Thu 06:36:34 PM 32.8000 -117.1000 87° East 191 220 7,000 -680 Level Southern California TRACON
Thu 06:37:40 PM 32.7833 -117.0333 107° East 183 211 5,900 -1,048 Descending Southern California TRACON
Thu 06:38:40 PM 32.7500 -117.0000 140° Southeast 204 235 4,800 -1,100 Descending Southern California TRACON

Login

Don't have an account? Register now (free) for customized features, flight alerts, and more!